Time;durP1;ratioP1;P1;durP2;ratioP2;P2;SDS_P1;SDS_P2;PMS_P1;PMS_P2;Temp;Humidity;BMP_temperature;BMP_pressure;BME280_temperature;BME280_humidity;BME280_pressure;Samples;Min_cycle;Max_cycle;Signal;HPM_P1;HPM_P2
2022/12/29 00:00:19;;;;;;;0.50;0.40;;;9.70;99.90;;;;;;5035233;28;20202;-82
2022/12/29 00:02:48;;;;;;;0.50;0.40;;;9.70;99.90;;;;;;5035595;28;20199;-82
2022/12/29 00:05:14;;;;;;;0.73;0.73;;;9.80;99.90;;;;;;5034224;28;20215;-81
2022/12/29 00:07:41;;;;;;;0.50;0.40;;;9.80;99.90;;;;;;5035206;28;20231;-79
2022/12/29 00:10:09;;;;;;;1.40;1.30;;;9.80;99.90;;;;;;5036926;28;20210;-80
2022/12/29 00:15:38;;;;;;;0.50;0.50;;;9.80;99.90;;;;;;5034638;28;20210;-82
2022/12/29 00:18:06;;;;;;;1.17;0.82;;;9.80;99.90;;;;;;5033126;28;20202;-80
2022/12/29 00:37:03;;;;;;;1.15;0.82;;;9.70;99.90;;;;;;5035261;28;20283;-80
2022/12/29 00:44:58;;;;;;;0.60;0.60;;;9.70;99.90;;;;;;5034985;28;20214;-80
2022/12/29 00:47:25;;;;;;;1.95;0.60;;;9.80;99.90;;;;;;5035155;28;20226;-82
2022/12/29 00:49:52;;;;;;;0.73;0.65;;;9.70;99.90;;;;;;5035143;28;20303;-82
2022/12/29 00:52:19;;;;;;;0.50;0.40;;;9.80;99.90;;;;;;5034866;28;20231;-82
2022/12/29 00:54:45;;;;;;;0.50;0.50;;;9.70;99.90;;;;;;5034608;28;20215;-81
2022/12/29 00:57:13;;;;;;;0.50;0.40;;;9.70;99.90;;;;;;5034845;28;20281;-81
2022/12/29 00:59:41;;;;;;;0.50;0.50;;;9.70;99.90;;;;;;5034966;28;20198;-82
2022/12/29 01:02:09;;;;;;;0.70;0.70;;;9.60;99.90;;;;;;5034987;28;20199;-79
2022/12/29 01:04:36;;;;;;;0.82;0.82;;;9.60;99.90;;;;;;5034272;28;20223;-80
2022/12/29 01:07:04;;;;;;;2.05;0.80;;;9.60;99.90;;;;;;5034788;28;20191;-80
2022/12/29 01:12:39;;;;;;;2.40;0.40;;;9.70;99.90;;;;;;5035098;28;20198;-77
2022/12/29 01:15:04;;;;;;;1.05;0.40;;;9.60;99.90;;;;;;5033786;28;20215;-81
2022/12/29 01:17:31;;;;;;;0.50;0.40;;;9.70;99.90;;;;;;5034599;28;20645;-81
2022/12/29 01:19:57;;;;;;;0.45;0.38;;;9.70;99.90;;;;;;5035295;28;20287;-79
2022/12/29 01:22:26;;;;;;;0.57;0.57;;;9.70;99.90;;;;;;5035199;28;20198;-79
2022/12/29 01:24:52;;;;;;;0.45;0.40;;;9.80;99.90;;;;;;5034888;28;20447;-79
2022/12/29 01:27:19;;;;;;;0.50;0.50;;;9.80;99.90;;;;;;5055345;28;20183;-86
2022/12/29 01:29:46;;;;;;;2.80;0.50;;;9.80;99.90;;;;;;5054566;28;20283;-80
2022/12/29 01:32:13;;;;;;;0.50;0.40;;;9.90;99.90;;;;;;5047078;28;20218;-81
2022/12/29 01:34:40;;;;;;;0.50;0.40;;;9.90;99.90;;;;;;5049039;28;20310;-81
2022/12/29 01:37:06;;;;;;;0.93;0.93;;;10.00;99.90;;;;;;5046436;28;20227;-81
2022/12/29 01:39:35;;;;;;;0.85;0.52;;;10.00;99.90;;;;;;5050466;28;20278;-86
2022/12/29 01:42:01;;;;;;;0.50;0.50;;;10.00;99.90;;;;;;5055437;28;20176;-85
2022/12/29 01:45:00;;;;;;;0.50;0.40;;;10.10;99.90;;;;;;5054197;28;20211;-86
2022/12/29 01:47:35;;;;;;;0.63;0.60;;;10.10;99.90;;;;;;4978667;29;20249;-85
2022/12/29 01:50:07;;;;;;;0.50;0.45;;;10.10;99.90;;;;;;5040294;28;20245;-81
2022/12/29 01:52:38;;;;;;;0.65;0.63;;;10.20;99.90;;;;;;5037907;28;20184;-81
2022/12/29 01:55:08;;;;;;;0.50;0.40;;;10.20;99.90;;;;;;5037389;28;20215;-84
2022/12/29 01:57:38;;;;;;;3.08;0.75;;;10.20;99.90;;;;;;5037388;28;20290;-79
2022/12/29 02:00:09;;;;;;;0.50;0.38;;;10.30;99.90;;;;;;5037637;28;20187;-82
2022/12/29 02:02:36;;;;;;;0.50;0.50;;;10.40;99.90;;;;;;5037594;28;20196;-83
2022/12/29 02:05:09;;;;;;;0.50;0.40;;;10.40;99.90;;;;;;5037004;28;20306;-81
2022/12/29 02:07:37;;;;;;;0.50;0.40;;;10.40;99.90;;;;;;5037730;28;20290;-80
2022/12/29 02:10:06;;;;;;;0.82;0.50;;;10.40;99.90;;;;;;5037512;28;20215;-83
2022/12/29 02:12:33;;;;;;;0.50;0.40;;;10.50;99.90;;;;;;5037870;28;20201;-79
2022/12/29 02:15:02;;;;;;;0.55;0.50;;;10.60;99.90;;;;;;5036123;28;20221;-83
2022/12/29 02:17:42;;;;;;;0.50;0.40;;;10.70;99.90;;;;;;5037819;28;20209;-81
2022/12/29 02:20:43;;;;;;;0.50;0.40;;;10.80;99.90;;;;;;5037491;28;20426;-78
2022/12/29 02:23:31;;;;;;;0.53;0.47;;;10.80;99.90;;;;;;5035458;28;20195;-79
2022/12/29 02:26:34;;;;;;;0.50;0.40;;;10.90;99.90;;;;;;5035662;28;20473;-80
2022/12/29 02:29:39;;;;;;;0.60;0.40;;;10.90;99.90;;;;;;5036687;28;20712;-82
2022/12/29 02:32:11;;;;;;;0.60;0.50;;;10.90;99.90;;;;;;5022345;28;20460;-80
2022/12/29 02:34:48;;;;;;;0.70;0.55;;;10.90;99.90;;;;;;5035823;28;20254;-79
2022/12/29 02:37:22;;;;;;;0.73;0.60;;;11.00;99.90;;;;;;5036849;28;20199;-78
2022/12/29 02:39:57;;;;;;;0.70;0.50;;;11.00;99.90;;;;;;5036818;28;20501;-80
2022/12/29 02:42:31;;;;;;;0.50;0.40;;;11.00;99.90;;;;;;5036796;28;20517;-80
2022/12/29 02:45:06;;;;;;;0.50;0.40;;;11.00;99.90;;;;;;5035898;28;20545;-79
2022/12/29 02:47:41;;;;;;;27.33;0.95;;;11.10;99.90;;;;;;5036928;28;20291;-80
2022/12/29 02:50:14;;;;;;;0.50;0.40;;;11.10;99.90;;;;;;5036808;28;20199;-79
2022/12/29 02:52:47;;;;;;;0.50;0.40;;;11.10;99.90;;;;;;5038106;28;20938;-81
2022/12/29 02:55:13;;;;;;;1.90;0.60;;;11.10;99.90;;;;;;5034843;28;20637;-80
2022/12/29 02:57:40;;;;;;;0.50;0.40;;;11.10;99.90;;;;;;5037033;28;20438;-80
2022/12/29 03:00:09;;;;;;;0.50;0.50;;;11.10;99.90;;;;;;5036369;28;20883;-81
2022/12/29 03:03:03;;;;;;;0.50;0.50;;;11.20;99.90;;;;;;5036887;28;20541;-82
2022/12/29 03:05:49;;;;;;;0.50;0.40;;;11.20;99.90;;;;;;5035503;28;20537;-83
2022/12/29 03:08:24;;;;;;;1.50;0.40;;;11.20;99.90;;;;;;5036329;28;20294;-83
2022/12/29 03:10:59;;;;;;;0.60;0.50;;;11.20;99.90;;;;;;5036031;28;20326;-80
2022/12/29 03:16:22;;;;;;;0.60;0.60;;;11.20;99.90;;;;;;5035484;28;20230;-82
2022/12/29 03:18:58;;;;;;;0.73;0.50;;;11.20;99.90;;;;;;5037090;28;20664;-79
2022/12/29 03:24:14;;;;;;;0.50;0.50;;;11.20;99.90;;;;;;5034845;28;20429;-82
2022/12/29 03:26:43;;;;;;;2.90;0.50;;;11.20;99.90;;;;;;5035706;28;20517;-79
2022/12/29 03:29:12;;;;;;;0.93;0.50;;;11.20;99.90;;;;;;5036389;28;20870;-81
2022/12/29 03:31:39;;;;;;;0.60;0.53;;;11.20;99.90;;;;;;5034307;28;20533;-80
2022/12/29 03:34:09;;;;;;;0.60;0.43;;;11.30;99.90;;;;;;5034901;28;21068;-78
2022/12/29 03:36:44;;;;;;;0.50;0.40;;;11.30;99.90;;;;;;5035463;28;20857;-81
2022/12/29 03:39:13;;;;;;;0.93;0.70;;;11.30;99.90;;;;;;5035690;28;20445;-79
2022/12/29 03:41:44;;;;;;;0.50;0.40;;;11.30;99.90;;;;;;5036401;28;20429;-82
2022/12/29 03:44:12;;;;;;;2.87;0.70;;;11.40;99.90;;;;;;5035831;28;20484;-80
2022/12/29 03:46:39;;;;;;;0.60;0.47;;;11.40;99.90;;;;;;5035311;28;20442;-82
2022/12/29 03:49:06;;;;;;;0.70;0.50;;;11.40;99.90;;;;;;5035792;28;21088;-79
2022/12/29 03:51:34;;;;;;;0.67;0.43;;;11.40;99.90;;;;;;5036164;28;21075;-82
2022/12/29 03:54:01;;;;;;;0.83;0.50;;;11.40;99.90;;;;;;5035046;28;20819;-81
2022/12/29 03:56:27;;;;;;;0.60;0.50;;;11.30;99.90;;;;;;5036284;28;20476;-79
2022/12/29 03:58:55;;;;;;;0.60;0.60;;;11.30;99.90;;;;;;5036112;28;20201;-79
2022/12/29 04:01:21;;;;;;;0.50;0.40;;;11.20;99.90;;;;;;5034949;28;20943;-81
2022/12/29 04:03:48;;;;;;;0.63;0.63;;;11.20;99.90;;;;;;5038218;28;20437;-78
2022/12/29 04:06:15;;;;;;;0.70;0.60;;;11.10;99.90;;;;;;5041663;28;20794;-79
2022/12/29 04:08:43;;;;;;;0.60;0.40;;;11.10;99.90;;;;;;5042587;28;20537;-82
2022/12/29 04:11:10;;;;;;;0.50;0.40;;;11.20;99.90;;;;;;5037973;28;20502;-82
2022/12/29 04:13:40;;;;;;;0.50;0.50;;;11.20;99.90;;;;;;5037129;28;20625;-80
2022/12/29 04:16:07;;;;;;;0.60;0.40;;;11.20;99.90;;;;;;5036439;28;20458;-79
2022/12/29 04:18:34;;;;;;;0.50;0.43;;;11.20;99.90;;;;;;5038605;28;20446;-80
2022/12/29 04:21:02;;;;;;;0.50;0.40;;;11.30;99.90;;;;;;5036799;28;20466;-81
2022/12/29 04:23:29;;;;;;;3.53;0.60;;;11.40;99.90;;;;;;5035856;28;20226;-82
2022/12/29 04:25:57;;;;;;;0.50;0.40;;;11.40;99.90;;;;;;5035020;28;20237;-81
2022/12/29 04:28:25;;;;;;;0.50;0.47;;;11.40;99.90;;;;;;5035561;28;20441;-80
2022/12/29 04:30:53;;;;;;;0.50;0.40;;;11.50;99.90;;;;;;5034959;28;20474;-81
2022/12/29 04:33:21;;;;;;;0.73;0.50;;;11.60;99.90;;;;;;5033078;28;21023;-77
2022/12/29 04:35:48;;;;;;;0.50;0.30;;;11.60;99.90;;;;;;5034780;28;20484;-81
2022/12/29 04:38:16;;;;;;;0.80;0.80;;;11.70;99.90;;;;;;5035773;28;20488;-80
2022/12/29 04:40:44;;;;;;;0.50;0.40;;;11.70;99.90;;;;;;5035704;28;20430;-80
2022/12/29 04:43:13;;;;;;;0.60;0.50;;;11.70;99.90;;;;;;5035737;28;20438;-77
2022/12/29 04:45:43;;;;;;;0.50;0.40;;;11.80;99.90;;;;;;5033289;28;20548;-80
2022/12/29 04:48:10;;;;;;;0.83;0.70;;;11.80;99.90;;;;;;5035525;28;20440;-81
2022/12/29 04:50:37;;;;;;;0.70;0.50;;;11.80;99.90;;;;;;5034532;28;20481;-79
2022/12/29 04:53:04;;;;;;;0.50;0.40;;;11.80;99.90;;;;;;5035015;28;20937;-79
2022/12/29 04:55:31;;;;;;;0.70;0.67;;;11.90;99.90;;;;;;5033331;28;20546;-83
2022/12/29 04:57:58;;;;;;;0.67;0.67;;;11.80;99.90;;;;;;5035000;28;20438;-81
2022/12/29 05:00:26;;;;;;;0.60;0.50;;;11.80;99.90;;;;;;5034625;28;20497;-81
2022/12/29 05:02:53;;;;;;;0.50;0.40;;;11.80;99.90;;;;;;5034561;28;20960;-79
2022/12/29 05:05:19;;;;;;;1.63;0.70;;;11.90;99.90;;;;;;5033702;28;20892;-81
2022/12/29 05:07:46;;;;;;;0.70;0.50;;;11.90;99.90;;;;;;5034821;28;20870;-81
2022/12/29 05:10:13;;;;;;;0.60;0.50;;;11.90;99.90;;;;;;5034588;28;20801;-79
2022/12/29 05:12:41;;;;;;;0.67;0.67;;;11.80;99.90;;;;;;5034779;28;20442;-81
2022/12/29 05:15:09;;;;;;;2.60;1.20;;;11.90;99.90;;;;;;5032977;28;20515;-78
2022/12/29 05:17:38;;;;;;;0.60;0.60;;;11.80;99.90;;;;;;5034490;28;20552;-81
2022/12/29 05:20:06;;;;;;;0.50;0.40;;;11.80;99.90;;;;;;5036985;28;20448;-80
2022/12/29 05:22:33;;;;;;;0.50;0.40;;;11.80;99.90;;;;;;5038105;28;20843;-81
2022/12/29 05:25:00;;;;;;;0.50;0.40;;;11.80;99.90;;;;;;5036843;28;20469;-79
2022/12/29 05:27:27;;;;;;;0.50;0.47;;;11.80;99.90;;;;;;5036295;28;20442;-77
2022/12/29 05:29:53;;;;;;;0.70;0.60;;;11.80;99.90;;;;;;5035809;28;20540;-79
2022/12/29 05:32:20;;;;;;;0.50;0.40;;;11.70;99.90;;;;;;5034732;28;20915;-78
2022/12/29 05:34:49;;;;;;;0.70;0.70;;;11.70;99.90;;;;;;5035051;28;20546;-79
2022/12/29 05:37:16;;;;;;;0.70;0.50;;;11.70;99.90;;;;;;5037124;28;20438;-81
2022/12/29 05:39:43;;;;;;;0.70;0.70;;;11.70;99.90;;;;;;5037103;28;20871;-79
2022/12/29 05:42:10;;;;;;;1.77;0.50;;;11.70;99.90;;;;;;5037459;28;20481;-80
2022/12/29 05:44:37;;;;;;;0.60;0.60;;;11.70;99.90;;;;;;5035879;28;20523;-79
2022/12/29 05:47:04;;;;;;;1.30;0.57;;;11.70;99.90;;;;;;5036721;28;20438;-78
2022/12/29 05:49:31;;;;;;;3.10;0.57;;;11.70;99.90;;;;;;5036935;28;20437;-81
2022/12/29 05:51:59;;;;;;;1.40;0.70;;;11.70;99.90;;;;;;5036478;28;21069;-79
2022/12/29 05:54:26;;;;;;;8.20;1.53;;;11.60;99.90;;;;;;5035868;28;20440;-80
2022/12/29 05:56:52;;;;;;;0.60;0.60;;;11.50;99.90;;;;;;5036428;28;21174;-79
2022/12/29 05:59:19;;;;;;;0.67;0.50;;;11.50;99.90;;;;;;5036932;28;20541;-80
2022/12/29 06:01:46;;;;;;;0.80;0.80;;;11.40;99.90;;;;;;5036112;28;20972;-80
2022/12/29 06:04:13;;;;;;;1.63;1.00;;;11.40;99.90;;;;;;5035420;28;20548;-79
2022/12/29 06:06:40;;;;;;;0.85;0.85;;;11.40;99.90;;;;;;5035333;28;20878;-78
2022/12/29 06:09:10;;;;;;;1.33;0.50;;;11.30;99.90;;;;;;5035424;28;20253;-78
2022/12/29 06:11:38;;;;;;;0.70;0.60;;;11.30;99.90;;;;;;5035145;28;20209;-78
2022/12/29 06:14:04;;;;;;;0.73;0.60;;;11.30;99.90;;;;;;5034920;28;20489;-79
2022/12/29 06:16:31;;;;;;;2.00;0.60;;;11.20;99.90;;;;;;5035487;28;20494;-77
2022/12/29 06:18:58;;;;;;;1.02;0.43;;;11.10;99.90;;;;;;5035382;28;20525;-82
2022/12/29 06:21:25;;;;;;;0.50;0.50;;;11.00;99.90;;;;;;5035482;28;20249;-79
2022/12/29 06:23:52;;;;;;;1.97;0.70;;;11.00;99.90;;;;;;5034836;28;20330;-81
2022/12/29 06:26:20;;;;;;;0.50;0.30;;;10.90;99.90;;;;;;5034525;28;20529;-78
2022/12/29 06:28:47;;;;;;;12.73;0.93;;;10.90;99.90;;;;;;5035896;28;20442;-82
2022/12/29 06:31:13;;;;;;;0.50;0.40;;;10.80;99.90;;;;;;5034029;28;20485;-82
2022/12/29 06:33:40;;;;;;;0.57;0.57;;;10.80;99.90;;;;;;5036045;28;20201;-78
2022/12/29 06:36:08;;;;;;;0.50;0.40;;;10.80;99.90;;;;;;5034874;28;20230;-82
2022/12/29 06:38:35;;;;;;;0.50;0.40;;;10.90;99.90;;;;;;5035118;28;20440;-79
2022/12/29 06:41:02;;;;;;;0.50;0.40;;;10.90;99.90;;;;;;5034985;28;20942;-79
2022/12/29 06:43:32;;;;;;;0.70;0.60;;;10.90;99.90;;;;;;5036074;28;20442;-78
2022/12/29 06:45:58;;;;;;;0.50;0.40;;;11.00;99.90;;;;;;5034983;28;20882;-79
2022/12/29 06:48:25;;;;;;;8.33;1.10;;;11.00;99.90;;;;;;5036402;28;20537;-78
2022/12/29 06:50:52;;;;;;;1.23;1.13;;;11.00;99.90;;;;;;5036326;28;20569;-81
2022/12/29 06:53:19;;;;;;;0.63;0.50;;;11.10;99.90;;;;;;5037418;28;20516;-79
2022/12/29 06:55:46;;;;;;;0.90;0.50;;;11.10;99.90;;;;;;5034971;28;20500;-79
2022/12/29 06:58:13;;;;;;;1.27;1.17;;;11.10;99.90;;;;;;5035710;28;20521;-81
2022/12/29 07:00:41;;;;;;;5.30;0.77;;;11.20;99.90;;;;;;5036979;28;20537;-79
2022/12/29 07:03:08;;;;;;;0.60;0.50;;;11.20;99.90;;;;;;5035764;28;20442;-79
2022/12/29 07:05:35;;;;;;;1.57;1.47;;;11.20;99.90;;;;;;5035872;28;20496;-78
2022/12/29 07:08:02;;;;;;;1.27;0.87;;;11.20;99.90;;;;;;5037181;28;20516;-80
2022/12/29 07:10:28;;;;;;;0.50;0.40;;;11.20;99.90;;;;;;5037314;28;20944;-79
2022/12/29 07:12:55;;;;;;;0.70;0.70;;;11.20;99.90;;;;;;5036661;28;20541;-79
2022/12/29 07:15:22;;;;;;;2.00;0.80;;;11.20;99.90;;;;;;5036111;28;20457;-80
2022/12/29 07:17:50;;;;;;;0.50;0.40;;;11.30;99.90;;;;;;5037212;28;20474;-79
2022/12/29 07:20:18;;;;;;;0.50;0.40;;;11.30;99.90;;;;;;5036576;28;20434;-77
2022/12/29 07:22:46;;;;;;;1.13;0.60;;;11.30;99.90;;;;;;5036915;28;20442;-80
2022/12/29 07:25:13;;;;;;;0.70;0.60;;;11.30;99.90;;;;;;5035959;28;20470;-81
2022/12/29 07:27:40;;;;;;;0.50;0.40;;;11.30;99.90;;;;;;5036042;28;20438;-79
2022/12/29 07:30:08;;;;;;;1.27;1.27;;;11.30;99.90;;;;;;5035919;28;20434;-78
2022/12/29 07:32:36;;;;;;;0.50;0.40;;;11.30;99.90;;;;;;5035522;28;20577;-81
2022/12/29 07:35:04;;;;;;;1.43;0.80;;;11.30;99.90;;;;;;5035401;28;20541;-79
2022/12/29 07:37:31;;;;;;;1.10;0.73;;;11.30;99.90;;;;;;5036196;28;20456;-82
2022/12/29 07:39:58;;;;;;;2.00;0.90;;;11.30;99.90;;;;;;5036810;28;20446;-80
2022/12/29 07:42:25;;;;;;;0.50;0.40;;;11.30;99.90;;;;;;5035745;28;20438;-80
2022/12/29 07:44:52;;;;;;;0.75;0.60;;;11.30;99.90;;;;;;5035860;28;20457;-79
2022/12/29 07:47:18;;;;;;;1.83;1.73;;;11.30;99.90;;;;;;5036296;28;20285;-80
2022/12/29 07:49:45;;;;;;;0.80;0.60;;;11.30;99.90;;;;;;5036238;28;20520;-79
2022/12/29 07:52:14;;;;;;;0.70;0.50;;;11.30;99.90;;;;;;5036260;28;20504;-79
2022/12/29 07:54:40;;;;;;;0.50;0.50;;;11.30;99.90;;;;;;5035939;28;20469;-79
2022/12/29 07:57:07;;;;;;;4.73;0.77;;;11.20;99.90;;;;;;5036869;28;20525;-79
2022/12/29 07:59:34;;;;;;;0.93;0.83;;;11.20;99.90;;;;;;5035888;28;21118;-81
2022/12/29 08:02:01;;;;;;;0.65;0.60;;;11.20;99.90;;;;;;5035971;28;20878;-80
2022/12/29 08:04:28;;;;;;;0.70;0.60;;;11.20;99.90;;;;;;5035121;28;20195;-81
2022/12/29 08:06:55;;;;;;;0.70;0.50;;;11.20;99.90;;;;;;5038425;28;20509;-79
2022/12/29 08:09:23;;;;;;;5.93;1.83;;;11.20;99.90;;;;;;5037011;28;20434;-84
2022/12/29 08:11:50;;;;;;;2.10;2.00;;;11.20;99.90;;;;;;5036442;28;20473;-80
2022/12/29 08:14:17;;;;;;;0.50;0.40;;;11.20;99.90;;;;;;5035315;28;20528;-79
2022/12/29 08:16:44;;;;;;;0.50;0.40;;;11.20;99.90;;;;;;5036491;28;20521;-80
2022/12/29 08:19:12;;;;;;;0.50;0.43;;;11.20;99.90;;;;;;5044118;28;20488;-79
2022/12/29 08:21:39;;;;;;;1.00;0.57;;;11.20;99.90;;;;;;5035267;28;20449;-80
2022/12/29 08:24:06;;;;;;;0.80;0.60;;;11.10;99.90;;;;;;5034278;28;20549;-80
2022/12/29 08:26:34;;;;;;;1.30;0.63;;;11.10;99.90;;;;;;5035087;28;20549;-81
2022/12/29 08:29:01;;;;;;;1.43;0.60;;;11.10;99.90;;;;;;5035465;28;20513;-80
2022/12/29 08:31:28;;;;;;;4.50;0.87;;;11.10;99.90;;;;;;5034426;28;20557;-80
2022/12/29 08:33:55;;;;;;;1.03;0.87;;;11.10;99.90;;;;;;5034936;28;21026;-81
2022/12/29 08:36:22;;;;;;;2.77;2.50;;;11.10;99.90;;;;;;5035477;28;20453;-80
2022/12/29 08:38:49;;;;;;;0.50;0.40;;;11.10;99.90;;;;;;5035366;28;20441;-82
2022/12/29 08:41:16;;;;;;;2.33;0.68;;;11.10;99.90;;;;;;5033902;28;20465;-81
2022/12/29 08:43:46;;;;;;;0.60;0.50;;;11.10;99.90;;;;;;5035505;28;20286;-79
2022/12/29 08:46:13;;;;;;;27.57;2.80;;;11.10;99.90;;;;;;5034612;28;20548;-78
2022/12/29 08:48:40;;;;;;;2.43;0.83;;;11.10;99.90;;;;;;5035024;28;20503;-80
2022/12/29 08:51:07;;;;;;;6.57;0.88;;;11.10;99.90;;;;;;5035515;28;20444;-80
2022/12/29 08:53:34;;;;;;;5.43;1.57;;;11.10;99.90;;;;;;5036750;28;20199;-82
2022/12/29 08:56:02;;;;;;;2.47;0.77;;;11.00;99.90;;;;;;5037207;28;20544;-80
2022/12/29 08:58:29;;;;;;;2.17;0.50;;;10.80;99.90;;;;;;5038811;28;20572;-81
2022/12/29 09:00:58;;;;;;;7.40;1.23;;;10.70;99.90;;;;;;5038738;28;20194;-80
2022/12/29 09:03:25;;;;;;;2.47;1.15;;;10.60;99.90;;;;;;5038964;28;20536;-82
2022/12/29 09:05:53;;;;;;;0.60;0.60;;;10.80;99.90;;;;;;5036606;28;20237;-80
2022/12/29 09:08:21;;;;;;;1.05;0.65;;;11.00;99.90;;;;;;5038221;28;20430;-79
2022/12/29 09:10:48;;;;;;;8.10;2.63;;;11.00;99.90;;;;;;5038795;28;20744;-80
2022/12/29 09:13:16;;;;;;;1.83;0.50;;;10.90;99.90;;;;;;5044721;28;20473;-79
2022/12/29 09:15:43;;;;;;;1.10;0.57;;;10.80;99.90;;;;;;5037989;28;20282;-79
2022/12/29 09:18:12;;;;;;;1.83;0.60;;;11.00;99.90;;;;;;5038680;28;20528;-82
2022/12/29 09:20:39;;;;;;;2.35;0.75;;;11.30;99.90;;;;;;5038571;28;20525;-79
2022/12/29 09:23:06;;;;;;;0.90;0.57;;;11.40;99.90;;;;;;5038141;28;20194;-83
2022/12/29 09:25:34;;;;;;;2.17;1.13;;;11.40;99.90;;;;;;5037089;28;20655;-80
2022/12/29 09:28:03;;;;;;;0.60;0.50;;;11.40;99.90;;;;;;5038671;28;20843;-81
2022/12/29 09:30:30;;;;;;;0.63;0.57;;;11.30;99.90;;;;;;5038832;28;20797;-84
2022/12/29 09:32:57;;;;;;;1.37;0.70;;;11.20;99.90;;;;;;5038420;28;20564;-80
2022/12/29 09:35:25;;;;;;;0.80;0.73;;;11.10;99.90;;;;;;5037666;28;20477;-80
2022/12/29 09:37:52;;;;;;;0.80;0.60;;;11.10;99.90;;;;;;5038555;28;20605;-82
2022/12/29 09:40:29;;;;;;;4.23;1.13;;;11.00;99.90;;;;;;5039140;28;20438;-83
2022/12/29 09:43:19;;;;;;;11.93;1.63;;;11.00;99.90;;;;;;5038177;28;20429;-82
2022/12/29 09:45:55;;;;;;;4.95;0.90;;;10.90;99.90;;;;;;5087020;22;20486;-76
2022/12/29 09:48:28;;;;;;;2.60;1.03;;;10.90;99.90;;;;;;5029005;28;20195;-76
2022/12/29 09:51:00;;;;;;;1.02;0.60;;;10.90;99.90;;;;;;5028100;28;20517;-76
2022/12/29 09:53:32;;;;;;;1.83;1.17;;;11.00;99.90;;;;;;5034037;28;20199;-77
2022/12/29 09:56:01;;;;;;;1.50;0.85;;;11.00;99.90;;;;;;5034401;28;20470;-79
2022/12/29 09:58:36;;;;;;;9.53;0.73;;;11.00;99.90;;;;;;5034505;28;20215;-77
2022/12/29 10:01:05;;;;;;;1.17;0.67;;;11.00;99.90;;;;;;5033362;28;20525;-77
2022/12/29 10:03:43;;;;;;;2.03;1.00;;;11.00;99.90;;;;;;5037626;28;20988;-79
2022/12/29 10:06:15;;;;;;;2.60;1.30;;;11.00;99.90;;;;;;5034184;28;20524;-78
2022/12/29 10:08:49;;;;;;;1.23;0.83;;;11.00;99.90;;;;;;5037786;28;20418;-78
2022/12/29 10:11:31;;;;;;;5.50;1.92;;;11.00;99.90;;;;;;5037222;28;20537;-77
2022/12/29 10:14:13;;;;;;;1.77;0.83;;;11.00;99.90;;;;;;5034925;28;20542;-78
2022/12/29 10:16:47;;;;;;;1.15;0.90;;;11.00;99.90;;;;;;5036073;28;20493;-77
2022/12/29 10:19:29;;;;;;;0.70;0.50;;;11.00;99.90;;;;;;5035834;28;20607;-78
2022/12/29 10:22:10;;;;;;;1.80;0.60;;;11.00;99.90;;;;;;5037494;28;20436;-78
2022/12/29 10:24:40;;;;;;;0.70;0.60;;;11.10;99.90;;;;;;5036000;28;20984;-78
2022/12/29 10:27:12;;;;;;;1.63;0.70;;;11.10;99.90;;;;;;5036674;28;20789;-78
2022/12/29 10:29:45;;;;;;;16.53;1.63;;;11.10;99.90;;;;;;5037114;28;20442;-77
2022/12/29 10:32:23;;;;;;;6.18;1.40;;;11.10;99.90;;;;;;5036146;28;20489;-77
2022/12/29 10:34:55;;;;;;;31.93;1.63;;;11.10;99.90;;;;;;5033380;28;20659;-78
2022/12/29 10:37:31;;;;;;;1.03;0.90;;;11.10;99.90;;;;;;5043944;28;20446;-78
2022/12/29 10:39:59;;;;;;;3.90;0.77;;;11.10;99.90;;;;;;5038585;28;20446;-78
2022/12/29 10:42:28;;;;;;;1.47;0.70;;;11.10;99.90;;;;;;5042763;28;20866;-78
2022/12/29 10:44:56;;;;;;;4.73;2.70;;;11.00;99.90;;;;;;5041605;28;20500;-76
2022/12/29 10:47:26;;;;;;;2.77;0.83;;;11.00;99.90;;;;;;5043378;28;20430;-78
2022/12/29 10:49:53;;;;;;;2.93;0.63;;;11.00;99.90;;;;;;5043384;28;20542;-79
2022/12/29 10:52:21;;;;;;;3.13;1.43;;;11.00;99.90;;;;;;5043476;28;20855;-78
2022/12/29 10:54:54;;;;;;;1.13;0.77;;;11.00;99.90;;;;;;5041530;28;20430;-79
2022/12/29 10:57:29;;;;;;;2.63;1.40;;;11.00;99.90;;;;;;5043560;28;20528;-79
2022/12/29 10:59:56;;;;;;;8.27;1.33;;;11.10;99.90;;;;;;5037892;28;20477;-78
2022/12/29 11:02:53;;;;;;;1.60;0.60;;;11.10;99.90;;;;;;5036403;28;20444;-78
2022/12/29 11:05:26;;;;;;;4.50;0.67;;;11.10;99.90;;;;;;5035362;28;21009;-78
2022/12/29 11:08:00;;;;;;;0.93;0.63;;;11.10;99.90;;;;;;5036311;28;20930;-78
2022/12/29 11:10:38;;;;;;;0.50;0.40;;;11.10;99.90;;;;;;5036070;28;20549;-77
2022/12/29 11:13:12;;;;;;;4.77;0.80;;;11.10;99.90;;;;;;5036476;28;20454;-77
2022/12/29 11:15:41;;;;;;;4.00;1.50;;;11.10;99.90;;;;;;5034707;28;20470;-78
2022/12/29 11:18:19;;;;;;;0.60;0.60;;;11.10;99.90;;;;;;5036267;28;20499;-80
2022/12/29 11:20:46;;;;;;;2.20;1.00;;;11.10;99.90;;;;;;5035849;28;20808;-77
2022/12/29 11:23:25;;;;;;;2.38;0.85;;;11.10;99.90;;;;;;5035829;28;20461;-77
2022/12/29 11:26:17;;;;;;;1.43;0.80;;;11.10;99.90;;;;;;5034768;28;20302;-78
2022/12/29 11:28:46;;;;;;;8.03;1.13;;;11.10;99.90;;;;;;5035921;28;20505;-78
2022/12/29 11:31:17;;;;;;;0.50;0.40;;;11.10;99.90;;;;;;5035623;28;20434;-78
2022/12/29 11:33:44;;;;;;;2.90;0.60;;;11.10;99.90;;;;;;5035984;28;20478;-76
2022/12/29 11:36:15;;;;;;;1.73;0.60;;;11.10;99.90;;;;;;5034406;28;20211;-78
2022/12/29 11:38:47;;;;;;;2.67;0.90;;;11.10;99.90;;;;;;5034848;28;20448;-78
2022/12/29 11:41:22;;;;;;;9.33;0.77;;;11.20;99.90;;;;;;5035580;28;20524;-78
2022/12/29 11:43:49;;;;;;;2.03;1.00;;;11.20;99.90;;;;;;5035634;28;20417;-78
2022/12/29 11:46:18;;;;;;;0.50;0.40;;;11.30;99.90;;;;;;5033724;28;20469;-78
2022/12/29 11:48:47;;;;;;;1.43;1.03;;;11.40;99.90;;;;;;5036219;28;20444;-77
2022/12/29 11:51:23;;;;;;;5.37;0.70;;;11.50;99.90;;;;;;5035551;28;20450;-78
2022/12/29 11:53:54;;;;;;;1.27;1.00;;;11.40;99.90;;;;;;5035129;28;20454;-77
2022/12/29 11:56:36;;;;;;;4.80;2.70;;;11.40;99.90;;;;;;5035249;28;20521;-78
2022/12/29 11:59:37;;;;;;;5.93;0.80;;;11.40;99.90;;;;;;5035289;28;20920;-78
2022/12/29 12:02:32;;;;;;;1.67;0.63;;;11.40;99.90;;;;;;5034895;28;20445;-78
2022/12/29 12:05:08;;;;;;;1.23;1.03;;;11.30;99.90;;;;;;5029349;28;20557;-78
2022/12/29 12:07:40;;;;;;;1.10;0.67;;;11.30;99.90;;;;;;5034763;28;20430;-78
2022/12/29 12:10:18;;;;;;;2.70;0.80;;;11.30;99.90;;;;;;5035287;28;20441;-78
2022/12/29 12:12:53;;;;;;;5.07;1.90;;;11.40;99.90;;;;;;5036807;28;20458;-77
2022/12/29 12:15:26;;;;;;;2.30;0.87;;;11.40;99.90;;;;;;5034281;28;20504;-78
2022/12/29 12:17:56;;;;;;;0.80;0.50;;;11.40;99.90;;;;;;5035424;28;20436;-78
2022/12/29 12:20:27;;;;;;;0.77;0.77;;;11.40;99.90;;;;;;5035358;28;20194;-78
2022/12/29 12:23:08;;;;;;;0.60;0.50;;;11.40;99.90;;;;;;5035153;28;20522;-78
2022/12/29 12:25:39;;;;;;;8.53;2.20;;;11.30;99.90;;;;;;5033570;28;20994;-76
2022/12/29 12:28:14;;;;;;;0.90;0.77;;;11.30;99.90;;;;;;5034575;28;20446;-78
2022/12/29 12:30:45;;;;;;;2.37;1.07;;;11.30;99.90;;;;;;5034698;28;20433;-78
2022/12/29 12:33:23;;;;;;;1.33;0.80;;;11.20;99.90;;;;;;5034298;28;20831;-78
2022/12/29 12:36:00;;;;;;;0.50;0.40;;;11.20;99.90;;;;;;5033155;28;20465;-79
2022/12/29 12:38:38;;;;;;;4.30;0.93;;;11.10;99.90;;;;;;5034437;28;20912;-78
2022/12/29 12:41:11;;;;;;;2.37;0.90;;;11.20;99.90;;;;;;5035105;28;20452;-78
2022/12/29 12:43:47;;;;;;;1.63;1.37;;;11.20;99.90;;;;;;5034885;28;20770;-78
2022/12/29 12:46:47;;;;;;;0.50;0.40;;;11.10;99.90;;;;;;5033585;28;20523;-77
2022/12/29 12:49:50;;;;;;;6.93;1.57;;;11.20;99.90;;;;;;5029282;28;21030;-78
2022/12/29 12:52:28;;;;;;;5.20;0.97;;;11.10;99.90;;;;;;5023778;28;20464;-78
2022/12/29 12:55:08;;;;;;;0.50;0.40;;;11.20;99.90;;;;;;5033243;28;21039;-78
2022/12/29 12:57:49;;;;;;;0.60;0.50;;;11.10;99.90;;;;;;5034762;28;20753;-77
2022/12/29 13:00:19;;;;;;;0.60;0.50;;;11.20;99.90;;;;;;5034432;28;20430;-78
2022/12/29 13:03:05;;;;;;;1.00;0.88;;;11.20;99.90;;;;;;5034253;28;20414;-77
2022/12/29 13:05:50;;;;;;;0.60;0.50;;;11.20;99.90;;;;;;5032536;28;20301;-78
2022/12/29 13:08:39;;;;;;;4.40;1.00;;;11.10;99.90;;;;;;5034285;28;20903;-78
2022/12/29 13:11:17;;;;;;;1.27;1.03;;;11.10;99.90;;;;;;5031224;28;20448;-78
2022/12/29 13:14:11;;;;;;;1.27;0.93;;;11.10;99.90;;;;;;5033060;28;20569;-77
2022/12/29 13:16:47;;;;;;;2.87;1.40;;;11.10;99.90;;;;;;5033422;28;20545;-77
2022/12/29 13:19:20;;;;;;;2.57;1.20;;;11.10;99.90;;;;;;5034160;28;20452;-77
2022/12/29 13:21:58;;;;;;;3.10;1.40;;;11.10;99.90;;;;;;5034282;28;20426;-77
2022/12/29 13:24:32;;;;;;;2.20;0.67;;;11.10;99.90;;;;;;5032798;28;20478;-78
2022/12/29 13:27:05;;;;;;;0.75;0.60;;;11.10;99.90;;;;;;5034290;28;20465;-77
2022/12/29 13:29:36;;;;;;;38.90;2.20;;;11.10;99.90;;;;;;5033512;28;20835;-78
2022/12/29 13:32:22;;;;;;;0.50;0.40;;;11.10;99.90;;;;;;5033549;28;20517;-78
2022/12/29 13:35:00;;;;;;;1.73;0.63;;;11.10;99.90;;;;;;5032494;28;20457;-78
2022/12/29 13:37:30;;;;;;;1.90;1.53;;;11.10;99.90;;;;;;5034140;28;20418;-78
2022/12/29 13:40:00;;;;;;;5.80;2.13;;;11.10;99.90;;;;;;5027480;28;20565;-78